• Join FlightAware (Why Join?)
  • Login
  • US Flag 
12:23AM EDT


 

Airport Tracker/Info


-or-


 

Live Flight TrackerFlight Track Log ✈ DAL268 ✈ 05-May-2013 ✈ KATL - KJFK

Flight Track Log - Related Links

Times and Time Zones

All times are in EDT time to prevent confusion due to time zone crossing. See the DAL268 flight status page for this flight to view local times or setup timezone preferences in your user account.

Time Position Orientation Groundspeed Altitude Reporting Facility
EDT Latitude Longitude Course Direction KTS MPH feet Rate Location/Type
06:10PM 33.6167 -84.5000 64° Northeast 211 243 3,100  Level Atlanta TRACON
06:11PM 33.5833 -84.5667 239° Southwest 259 298 5,400 2,880 Climbing Atlanta TRACON
06:12PM 33.8632 -84.1313 101° East  Level Estimated
06:12PM 33.5167 -84.5833 192° South 255 293 8,600  Level Atlanta TRACON
06:13PM 33.8063 -84.0157 121° Southeast  Level FlightAware Approximate
06:13PM 33.4553 -84.4944 130° Southeast 224 258 10,900  Level Atlanta Center
06:14PM 33.7493 -83.9002 121° Southeast  Level FlightAware Approximate
06:14PM 33.4556 -84.3750 90° East 287 330 12,800  Level Atlanta Center
06:15PM 33.8261 -83.8028 64° Northeast  Level Estimated
06:15PM 33.4642 -84.2581 85° East 335 386 15,400  Level Atlanta Center
06:16PM 33.5125 -84.1408 64° Northeast 373 429 16,800 1,500 Climbing Atlanta Center
06:17PM 33.5647 -84.0164 63° Northeast 393 452 18,400 1,140 Climbing Atlanta Center
06:18PM 33.6106 -83.8817 68° East 415 478 19,100 720 Climbing Atlanta Center
06:19PM 33.6414 -83.7319 76° East 440 506 19,900 1,200 Climbing Atlanta Center
06:20PM 33.6828 -83.5794 72° East 468 539 21,500 1,500 Climbing Atlanta Center
06:21PM 33.7447 -83.4292 64° Northeast 489 563 23,000 1,320 Climbing Atlanta Center
06:22PM 33.8044 -83.2764 65° Northeast 494 568 24,200 1,320 Climbing Atlanta Center
06:23PM 33.8700 -83.1206 63° Northeast 506 582 25,700 1,500 Climbing Atlanta Center
06:24PM 33.9233 -82.9822 65° Northeast 512 589 27,200 1,680 Climbing Atlanta Center
06:25PM 33.9867 -82.8261 64° Northeast 512 589 29,100 1,620 Climbing Atlanta Center
06:26PM 34.0456 -82.6775 64° Northeast 502 578 30,500 1,260 Climbing Atlanta Center
06:27PM 34.1064 -82.5258 64° Northeast 502 578 31,700 720 Climbing Atlanta Center
06:28PM 34.1628 -82.3769 65° Northeast 495 570 32,000 120 Climbing Atlanta Center
06:29PM 34.2233 -82.2250 64° Northeast 490 564 32,000  Level Atlanta Center
06:30PM 34.2858 -82.0803 62° Northeast 484 557 32,000  Level Atlanta Center
06:31PM 34.3586 -81.9378 58° Northeast 484 557 32,000 240 Level Atlanta Center
06:32PM 34.4292 -81.8000 58° Northeast 484 557 32,500 420 Climbing Atlanta Center
06:33PM 34.4994 -81.6544 60° Northeast 489 563 32,900 240 Climbing Atlanta Center
06:34PM 34.5717 -81.5086 59° Northeast 495 570 33,000  Climbing Atlanta Center
06:35PM 34.6517 -81.3494 59° Northeast 501 577 33,000  Level Atlanta Center
06:36PM 34.7256 -81.1981 59° Northeast 508 585 33,000  Level Atlanta Center
06:37PM 34.7953 -81.0542 59° Northeast 508 585 33,000  Level Atlanta Center
06:38PM 34.8689 -80.9072 59° Northeast 503 579 33,000  Level Atlanta Center
06:39PM 34.9400 -80.7575 60° Northeast 508 585 33,000  Level Atlanta Center
06:42PM 35.0917 -80.4403 60° Northeast 481 554 33,000  Level Washington Center
06:43PM 35.1600 -80.2969 60° Northeast 481 554 33,000  Level Washington Center
06:44PM 35.2303 -80.1536 59° Northeast 487 560 33,000  Level Washington Center
06:45PM 35.2981 -80.0125 59° Northeast 487 560 33,000  Level Washington Center
06:46PM 35.3661 -79.8686 60° Northeast 487 560 33,000  Level Washington Center
06:47PM 35.4356 -79.7269 59° Northeast 479 551 33,000  Level Washington Center
06:48PM 35.5031 -79.5850 60° Northeast 479 551 33,000  Level Washington Center
06:49PM 35.5703 -79.4428 60° Northeast 474 545 33,000  Level Washington Center
06:50PM 35.6356 -79.2978 61° Northeast 474 545 33,000  Level Washington Center
06:51PM 35.7044 -79.1578 59° Northeast 469 540 33,000  Level Washington Center
06:52PM 35.7692 -79.0147 61° Northeast 469 540 33,000  Level Washington Center
06:53PM 35.8297 -78.8661 63° Northeast 469 540 33,000  Level Washington Center
06:54PM 35.8944 -78.7072 63° Northeast 469 540 33,000  Level Washington Center
06:55PM 35.9544 -78.5608 63° Northeast 469 540 33,000  Level Washington Center
06:56PM 36.0144 -78.4117 64° Northeast 469 540 33,000  Level Washington Center
06:57PM 36.0742 -78.2647 63° Northeast 469 540 33,000  Level Washington Center
06:58PM 36.1336 -78.1200 63° Northeast 469 540 33,000  Level Washington Center
06:59PM 36.1950 -77.9728 63° Northeast 469 540 33,000  Level Washington Center
07:00PM 36.2542 -77.8253 64° Northeast 469 540 33,000  Level Washington Center
07:01PM 36.3111 -77.6772 64° Northeast 469 540 33,000  Level Washington Center
07:02PM 36.3719 -77.5319 62° Northeast 464 534 33,000  Level Washington Center
07:03PM 36.4264 -77.3861 65° Northeast 464 534 33,000  Level Washington Center
07:04PM 36.4869 -77.2428 62° Northeast 459 528 33,000  Level Washington Center
07:05PM 36.5386 -77.1094 64° Northeast 470 541 33,000  Level Washington Center
07:06PM 36.5989 -76.9606 63° Northeast 470 541 33,000  Level Washington Center
07:07PM 36.6569 -76.8139 64° Northeast 470 541 33,000  Level Washington Center
07:08PM 36.7125 -76.6644 65° Northeast 470 541 33,000  Level Washington Center
07:09PM 36.7783 -76.5203 60° Northeast 470 541 33,000  Level Washington Center
07:10PM 36.8814 -76.4281 36° Northeast 457 526 33,000  Level Washington Center
07:11PM 36.9925 -76.3381 33° Northeast 455 524 33,000  Level Washington Center
07:12PM 37.1033 -76.2508 32° Northeast 461 531 33,000  Level Washington Center
07:13PM 37.2103 -76.1603 34° Northeast 466 536 33,000 -60 Level Washington Center
07:14PM 37.3339 -76.0672 31° Northeast 466 536 32,900  Descending Washington Center
07:15PM 37.4406 -75.9817 32° Northeast 461 531 33,000  Climbing Washington Center
07:16PM 37.5514 -75.8906 33° Northeast 461 531 33,000  Level Washington Center
07:17PM 37.6578 -75.7992 34° Northeast 461 531 33,000  Level Washington Center
07:18PM 37.7686 -75.7075 33° Northeast 461 531 33,000  Level Washington Center
07:19PM 37.8792 -75.6181 33° Northeast 461 531 33,000  Level Washington Center
07:20PM 37.9856 -75.5286 34° Northeast 461 531 33,000  Level Washington Center
07:21PM 38.0958 -75.4467 30° Northeast 461 531 33,000  Level Washington Center
07:22PM 38.2106 -75.3750 26° Northeast 456 525 33,000  Level Washington Center
07:23PM 38.2978 -75.3192 27° Northeast 451 519 33,000  Level Washington Center
07:24PM 38.4208 -75.2339 28° Northeast 446 513 33,000  Level Washington Center
07:25PM 38.5331 -75.1669 25° Northeast 446 513 33,000  Level Washington Center
07:26PM 38.6453 -75.0947 27° Northeast 446 513 33,000  Level Washington Center
07:27PM 38.7575 -75.0247 26° Northeast 446 513 33,000  Level Washington Center
07:28PM 38.8678 -74.9517 27° Northeast 446 513 33,000 -180 Level Washington Center
07:29PM 38.9800 -74.8786 27° Northeast 446 513 32,700 -1,020 Descending Washington Center
07:30PM 39.0878 -74.8108 26° Northeast 446 513 31,000 -1,680 Descending Washington Center
07:31PM 39.1872 -74.7106 38° Northeast 446 513 29,400 -2,520 Descending Washington Center
07:32PM 39.2928 -74.5936 41° Northeast 441 507 25,800 -3,300 Descending New York Center
07:33PM 39.3858 -74.4911 40° Northeast 426 490 22,600 -3,240 Descending New York Center
07:34PM 39.4742 -74.3936 40° Northeast 421 484 19,500 -2,340 Descending New York Center
07:35PM 39.5561 -74.3036 40° Northeast 421 484 18,000 -780 Descending New York Center
07:36PM 39.6425 -74.2108 40° Northeast 416 479 18,000 -1,200 Level New York Center
07:37PM 39.7350 -74.1072 41° Northeast 404 465 15,600 -2,580 Descending New York Center
07:38PM 39.8167 -74.0167 40° Northeast 391 450 13,000 -2,340 Descending New York Center
07:39PM 39.9042 -73.9422 33° Northeast 381 438 11,000 -1,020 Descending New York Center
07:40PM 39.9783 -73.8969 25° Northeast 347 399 11,000  Level New York Center
07:41PM 40.0592 -73.8408 28° Northeast 298 343 11,000 -660 Level New York Center
07:42PM 40.1364 -73.8336 North 287 330 9,800 -1,500 Descending New York Center
07:43PM 40.2150 -73.8561 348° North 281 323 8,000 -1,680 Descending New York Center
07:44PM 40.2833 -73.8728 349° North 281 323 6,500 -1,620 Descending New York Center
07:45PM 40.3569 -73.9250 332° Northwest 270 311 4,900 -1,560 Descending New York Center
07:46PM 40.4142 -73.9711 328° Northwest 270 311 3,400 -960 Descending New York Center
07:47PM 40.4847 -73.9828 353° North 238 274 3,000 -240 Descending New York Center
07:48PM 40.5333 -73.9667 14° North 186 214 3,000 -720 Level New York TRACON
07:49PM 40.5667 -73.9333 37° Northeast 170 196 1,600 -780 Descending New York TRACON
07:50PM 40.6167 -73.9000 27° Northeast 147 169 1,500 -420 Descending New York TRACON
07:51PM 40.6500 -73.8667 37° Northeast 148 170 800 -420 Descending New York TRACON
07:52PM 40.6667 -73.8333 57° Northeast 144 166 700 -120 Descending New York TRACON